createdAt,value
2023-01-02T00:01:50.310Z,20.58
2023-01-02T00:06:54.127Z,20.11
2023-01-02T00:11:57.487Z,20.14
2023-01-02T00:17:02.177Z,20.03
2023-01-02T00:22:05.565Z,20.24
2023-01-02T00:27:08.859Z,20.34
2023-01-02T00:32:13.667Z,20.45
2023-01-02T00:37:35.376Z,20.55
2023-01-02T00:42:38.700Z,20.61
2023-01-02T00:47:43.357Z,20.36
2023-01-02T00:52:46.677Z,19.71
2023-01-02T00:57:50.038Z,20.50
2023-01-02T01:02:57.921Z,20.10
2023-01-02T01:08:01.269Z,20.43
2023-01-02T01:13:05.124Z,19.48
2023-01-02T01:18:09.753Z,20.19
2023-01-02T01:23:13.125Z,20.47
2023-01-02T01:28:16.525Z,20.56
2023-01-02T01:33:21.220Z,20.62
2023-01-02T01:38:24.638Z,20.68
2023-01-02T01:43:42.635Z,19.88
2023-01-02T01:48:49.401Z,20.25
2023-01-02T01:53:53.461Z,20.53
2023-01-02T01:58:56.815Z,20.65
2023-01-02T02:04:01.587Z,20.73
2023-01-02T02:09:08.144Z,20.42
2023-01-02T02:14:11.477Z,20.43
2023-01-02T02:19:41.066Z,20.20
2023-01-02T02:25:08.324Z,20.49
2023-01-02T02:30:15.053Z,20.69
2023-01-02T02:35:27.771Z,20.39
2023-01-02T02:40:38.250Z,20.73
2023-01-02T02:45:49.303Z,20.49
2023-01-02T02:50:57.749Z,20.30
2023-01-02T02:56:03.008Z,20.99
2023-01-02T03:01:09.290Z,20.66
2023-01-02T03:06:26.621Z,20.71
2023-01-02T03:11:37.108Z,20.79
2023-01-02T03:16:43.511Z,20.82
2023-01-02T03:21:49.578Z,20.77
2023-01-02T03:26:56.980Z,20.68
2023-01-02T03:32:02.971Z,20.73
2023-01-02T03:37:09.756Z,21.27
2023-01-02T03:42:14.469Z,20.70
2023-01-02T03:47:27.987Z,20.16
2023-01-02T03:52:31.604Z,21.35
2023-01-02T03:57:42.821Z,20.92
2023-01-02T04:02:52.851Z,21.27
2023-01-02T04:07:59.864Z,21.22
2023-01-02T04:13:06.690Z,21.33
2023-01-02T04:18:14.189Z,20.98
2023-01-02T04:23:21.524Z,20.47
2023-01-02T04:28:26.681Z,20.42
2023-01-02T04:33:33.699Z,20.78
2023-01-02T04:38:37.116Z,21.00
2023-01-02T04:43:40.520Z,20.86
2023-01-02T04:48:45.312Z,20.87
2023-01-02T04:53:49.203Z,21.26
2023-01-02T04:58:52.572Z,21.15
2023-01-02T05:03:57.248Z,21.14
2023-01-02T05:09:00.745Z,21.31
2023-01-02T05:14:07.571Z,21.61
2023-01-02T05:19:12.793Z,21.29
2023-01-02T05:24:16.919Z,20.59
2023-01-02T05:29:20.699Z,20.62
2023-01-02T05:34:25.429Z,21.00
2023-01-02T05:39:28.885Z,20.50
2023-01-02T05:44:32.289Z,20.55
2023-01-02T05:49:36.996Z,20.60
2023-01-02T05:54:40.411Z,20.27
2023-01-02T05:59:43.817Z,21.26
2023-01-02T06:04:48.666Z,20.87
2023-01-02T06:09:52.080Z,21.16
2023-01-02T06:14:55.435Z,21.32
2023-01-02T06:20:00.167Z,21.11
2023-01-02T06:25:04.036Z,21.00
2023-01-02T06:30:08.872Z,20.62
2023-01-02T06:35:13.568Z,20.68
2023-01-02T06:40:17.901Z,20.97
2023-01-02T06:45:23.325Z,20.95
2023-01-02T06:50:34.608Z,20.89
2023-01-02T06:55:38.466Z,20.28
2023-01-02T07:00:41.853Z,21.07
2023-01-02T07:05:46.775Z,21.06
2023-01-02T07:10:53.160Z,21.04
2023-01-02T07:15:56.619Z,21.01
2023-01-02T07:21:01.632Z,20.98
2023-01-02T07:26:07.527Z,21.21
2023-01-02T07:31:13.702Z,20.74
2023-01-02T07:36:22.117Z,20.77
2023-01-02T07:41:26.581Z,20.52
2023-01-02T07:46:30.002Z,20.60
2023-01-02T07:51:35.459Z,20.56
2023-01-02T07:56:38.843Z,20.63
2023-01-02T08:01:42.440Z,20.89
2023-01-02T08:06:47.333Z,20.97
2023-01-02T08:11:50.782Z,20.82
2023-01-02T08:16:54.193Z,20.62
2023-01-02T08:21:58.903Z,20.91
2023-01-02T08:27:02.632Z,20.50
2023-01-02T08:32:06.721Z,20.38
2023-01-02T08:37:11.480Z,20.56
2023-01-02T08:42:15.092Z,20.38
2023-01-02T08:47:18.497Z,20.66
2023-01-02T08:52:23.299Z,20.64
2023-01-02T08:57:26.686Z,20.79
2023-01-02T09:02:30.301Z,20.68
2023-01-02T09:07:35.193Z,20.41
2023-01-02T09:12:38.503Z,20.88
2023-01-02T09:17:41.888Z,21.56
2023-01-02T09:22:46.572Z,21.11
2023-01-02T09:27:49.940Z,20.75
2023-01-02T09:32:53.343Z,21.06
2023-01-02T09:37:58.198Z,21.09
2023-01-02T09:43:01.583Z,21.39
2023-01-02T09:48:05.567Z,20.01
2023-01-02T09:53:11.375Z,20.85
2023-01-02T09:58:20.003Z,20.99
2023-01-02T10:03:28.236Z,20.87
2023-01-02T10:08:39.197Z,20.80
2023-01-02T10:14:20.750Z,21.83
2023-01-02T10:19:15.632Z,21.60
2023-01-02T10:24:24.355Z,21.19
2023-01-02T10:29:30.238Z,21.06
2023-01-02T10:34:38.499Z,20.68
2023-01-02T10:39:45.031Z,20.51
2023-01-02T10:44:48.450Z,19.85
2023-01-02T10:49:53.514Z,20.36
2023-01-02T10:55:00.544Z,19.72
2023-01-02T11:00:06.027Z,19.84
2023-01-02T11:05:22.818Z,19.96
2023-01-02T11:10:30.537Z,20.12
2023-01-02T11:15:35.390Z,20.32
2023-01-02T11:20:38.910Z,19.84
2023-01-02T11:25:44.905Z,19.90
2023-01-02T11:30:49.049Z,20.32
2023-01-02T11:35:54.544Z,20.07
2023-01-02T11:41:01.168Z,20.06
2023-01-02T11:46:09.729Z,19.73
2023-01-02T11:51:17.768Z,19.59
2023-01-02T11:56:27.151Z,20.00
2023-01-02T12:01:38.037Z,19.14
2023-01-02T12:06:52.573Z,19.46
2023-01-02T12:12:10.067Z,19.05
2023-01-02T12:17:17.184Z,19.15
2023-01-02T12:22:46.694Z,19.21
2023-01-02T12:27:56.496Z,19.37
2023-01-02T12:33:18.115Z,18.29
2023-01-02T12:38:33.145Z,19.32
2023-01-02T12:43:51.200Z,19.17
2023-01-02T12:49:09.216Z,18.87
2023-01-02T12:54:24.738Z,20.22
2023-01-02T12:59:44.906Z,19.92
2023-01-02T13:04:49.983Z,18.55
2023-01-02T13:09:53.509Z,18.57
2023-01-02T13:14:59.960Z,18.44
2023-01-02T13:20:06.121Z,18.96
2023-01-02T13:25:13.820Z,18.56
2023-01-02T13:30:50.662Z,18.51
2023-01-02T13:35:54.598Z,19.01
2023-01-02T13:40:59.497Z,18.65
2023-01-02T13:46:04.246Z,18.24
2023-01-02T13:51:14.969Z,18.50
2023-01-02T13:56:19.507Z,19.03
2023-01-02T14:01:43.215Z,18.30
2023-01-02T14:06:53.585Z,18.35
2023-01-02T14:11:59.418Z,17.31
2023-01-02T14:17:11.077Z,18.05
2023-01-02T14:22:15.698Z,18.37
2023-01-02T14:27:22.788Z,17.39
2023-01-02T14:32:37.503Z,17.90
2023-01-02T14:37:43.571Z,17.37
2023-01-02T14:43:07.886Z,17.82
2023-01-02T14:48:16.530Z,17.42
2023-01-02T14:53:22.723Z,17.90
2023-01-02T14:58:32.139Z,18.16
2023-01-02T15:03:43.883Z,18.03
2023-01-02T15:08:49.323Z,18.04
2023-01-02T15:14:05.382Z,17.98
2023-01-02T15:19:19.681Z,17.88
2023-01-02T15:24:26.622Z,18.11
2023-01-02T15:29:30.333Z,18.18
2023-01-02T15:34:35.184Z,17.84
2023-01-02T15:39:40.632Z,17.79
2023-01-02T15:45:01.689Z,17.46
2023-01-02T15:50:13.151Z,17.83
2023-01-02T15:55:18.707Z,17.65
2023-01-02T16:00:33.447Z,17.31
2023-01-02T16:05:51.893Z,17.34
2023-01-02T16:11:01.246Z,17.77
2023-01-02T16:16:16.646Z,17.73
2023-01-02T16:21:22.524Z,18.05
2023-01-02T16:26:30.631Z,18.08
2023-01-02T16:31:56.095Z,17.97
2023-01-02T16:37:35.628Z,18.15
2023-01-02T16:42:41.143Z,17.93
2023-01-02T16:47:44.897Z,17.89
2023-01-02T16:52:50.266Z,17.86
2023-01-02T16:57:53.704Z,17.90
2023-01-02T17:02:57.103Z,17.87
2023-01-02T17:08:01.861Z,17.76
2023-01-02T17:13:05.693Z,17.84
2023-01-02T17:18:09.832Z,17.60
2023-01-02T17:23:15.370Z,17.32
2023-01-02T17:28:18.774Z,17.47
2023-01-02T17:33:22.366Z,17.63
2023-01-02T17:38:27.053Z,17.82
2023-01-02T17:43:30.348Z,17.73
2023-01-02T17:48:33.832Z,17.21
2023-01-02T17:53:38.636Z,17.91
2023-01-02T17:58:42.021Z,17.75
2023-01-02T18:03:45.649Z,18.14
2023-01-02T18:08:54.298Z,18.09
2023-01-02T18:13:58.183Z,17.63
2023-01-02T18:19:04.074Z,17.99
2023-01-02T18:24:12.966Z,17.69
2023-01-02T18:29:23.190Z,17.66
2023-01-02T18:34:47.677Z,18.07
2023-01-02T18:39:52.664Z,17.84
2023-01-02T18:44:57.845Z,17.72
2023-01-02T18:50:28.399Z,17.37
2023-01-02T18:55:40.053Z,17.94
2023-01-02T19:00:44.053Z,17.27
2023-01-02T19:05:47.587Z,16.82
2023-01-02T19:10:54.173Z,16.94
2023-01-02T19:15:59.400Z,16.88
2023-01-02T19:21:17.019Z,17.25
2023-01-02T19:26:25.359Z,17.36
2023-01-02T19:31:31.890Z,17.09
2023-01-02T19:36:39.790Z,17.42
2023-01-02T19:42:02.287Z,17.19
2023-01-02T19:47:06.013Z,17.51
2023-01-02T19:52:10.243Z,17.52
2023-01-02T19:57:17.595Z,17.04
2023-01-02T20:02:22.384Z,17.23
2023-01-02T20:07:26.883Z,16.61
2023-01-02T20:12:34.204Z,17.41
2023-01-02T20:17:38.758Z,16.19
2023-01-02T20:22:43.340Z,16.75
2023-01-02T20:27:49.159Z,16.24
2023-01-02T20:32:52.543Z,16.09
2023-01-02T20:37:55.950Z,16.89
2023-01-02T20:43:00.702Z,16.56
2023-01-02T20:48:04.188Z,16.87
2023-01-02T20:53:07.668Z,16.58
2023-01-02T20:58:12.389Z,16.17
2023-01-02T21:03:15.907Z,17.04
2023-01-02T21:08:19.368Z,17.02
2023-01-02T21:13:24.062Z,16.12
2023-01-02T21:18:29.085Z,15.53
2023-01-02T21:23:35.231Z,16.00
2023-01-02T21:28:39.989Z,16.00
2023-01-02T21:33:43.470Z,16.43
2023-01-02T21:38:46.842Z,15.79
2023-01-02T21:43:51.798Z,15.96
2023-01-02T21:48:55.191Z,15.62
2023-01-02T21:53:58.555Z,15.85
2023-01-02T21:59:03.305Z,15.42
2023-01-02T22:04:06.776Z,15.90
2023-01-02T22:09:10.153Z,15.58
2023-01-02T22:14:14.855Z,15.99
2023-01-02T22:19:18.289Z,15.30
2023-01-02T22:24:23.475Z,15.44
2023-01-02T22:29:51.582Z,15.45
2023-01-02T22:34:53.826Z,15.78
2023-01-02T22:39:57.234Z,15.25
2023-01-02T22:45:02.124Z,15.67
2023-01-02T22:50:11.752Z,15.13
2023-01-02T22:55:17.985Z,15.56
2023-01-02T23:00:23.398Z,15.00
2023-01-02T23:05:26.936Z,14.84
2023-01-02T23:10:30.313Z,15.04
2023-01-02T23:15:34.994Z,15.18
2023-01-02T23:20:38.395Z,14.91
2023-01-02T23:25:43.614Z,15.51
2023-01-02T23:30:48.406Z,15.46
2023-01-02T23:35:52.146Z,14.96
2023-01-02T23:40:56.554Z,15.15
2023-01-02T23:46:01.386Z,14.95
2023-01-02T23:51:05.665Z,14.65
2023-01-02T23:56:19.580Z,14.49
